Time;durP1;ratioP1;P1;durP2;ratioP2;P2;SDS_P1;SDS_P2;PMS_P1;PMS_P2;Temp;Humidity;BMP_temperature;BMP_pressure;BME280_temperature;BME280_humidity;BME280_pressure;Samples;Min_cycle;Max_cycle;Signal;HPM_P1;HPM_P2
2023/10/21 00:11:55;;;;;;;19.92;8.07;;;;;;;21.11;100.00;99278.25;30996940;28;20054;-77
2023/10/21 00:26:57;;;;;;;17.73;6.72;;;;;;;21.13;100.00;99275.72;31000724;28;20062;-76
2023/10/21 00:42:06;;;;;;;19.38;7.28;;;;;;;21.33;100.00;99278.13;31003827;28;20153;-76
2023/10/21 00:57:09;;;;;;;19.13;6.63;;;;;;;21.17;100.00;99264.41;30993909;28;20097;-77
2023/10/21 01:12:11;;;;;;;17.45;7.75;;;;;;;21.16;100.00;99252.63;30991646;28;20062;-77
2023/10/21 01:27:13;;;;;;;17.90;6.95;;;;;;;21.21;100.00;99282.22;31004645;28;20057;-78
2023/10/21 01:42:15;;;;;;;18.88;7.32;;;;;;;21.29;100.00;99282.41;30988976;28;20054;-76
2023/10/21 01:57:17;;;;;;;22.02;7.63;;;;;;;21.29;100.00;99272.13;30989946;28;20046;-75
2023/10/21 02:12:19;;;;;;;16.65;7.93;;;;;;;21.32;100.00;99262.84;30997906;28;20058;-75
2023/10/21 02:27:22;;;;;;;18.92;8.20;;;;;;;21.33;100.00;99305.72;30992028;28;20054;-76
2023/10/21 02:42:24;;;;;;;21.25;9.38;;;;;;;21.26;100.00;99284.19;30986974;28;20221;-76
2023/10/21 02:57:26;;;;;;;22.17;8.25;;;;;;;21.21;100.00;99257.41;30985071;28;20053;-76
2023/10/21 03:12:29;;;;;;;20.38;8.50;;;;;;;21.19;100.00;99240.56;30989422;28;20118;-76
2023/10/21 03:27:32;;;;;;;17.50;8.90;;;;;;;21.10;100.00;99244.38;30977807;28;20074;-72
2023/10/21 03:42:34;;;;;;;19.75;9.18;;;;;;;21.03;100.00;99260.72;30983485;28;20074;-73
2023/10/21 03:57:36;;;;;;;18.50;9.32;;;;;;;20.70;100.00;99243.09;30957402;28;20069;-72
2023/10/21 04:12:39;;;;;;;21.00;9.73;;;;;;;20.47;100.00;99235.41;31002208;28;20113;-73
2023/10/21 04:27:41;;;;;;;24.60;11.38;;;;;;;20.49;100.00;99232.91;31000707;28;20073;-73
2023/10/21 04:42:43;;;;;;;23.00;10.00;;;;;;;20.31;100.00;99225.94;30975183;28;20494;-75
2023/10/21 04:57:45;;;;;;;28.63;10.83;;;;;;;20.24;100.00;99238.22;30987190;28;20137;-76
2023/10/21 05:12:47;;;;;;;23.25;10.57;;;;;;;20.53;100.00;99267.22;30995514;28;20050;-72
2023/10/21 05:27:49;;;;;;;21.13;10.77;;;;;;;20.69;100.00;99298.75;30992616;28;20077;-73
2023/10/21 05:42:52;;;;;;;21.75;10.00;;;;;;;21.08;100.00;99299.31;30990698;28;20058;-73
2023/10/21 05:57:53;;;;;;;21.05;10.00;;;;;;;22.02;100.00;99302.75;30988261;28;20082;-78
2023/10/21 06:12:56;;;;;;;23.80;8.88;;;;;;;22.76;100.00;99354.03;31015655;28;20050;-79
2023/10/21 06:27:58;;;;;;;16.13;6.97;;;;;;;24.41;100.00;99395.09;30999206;28;20100;-77
2023/10/21 06:43:00;;;;;;;18.08;7.03;;;;;;;24.82;100.00;99433.44;30995266;28;20078;-78
2023/10/21 06:58:02;;;;;;;13.45;6.57;;;;;;;24.64;100.00;99456.47;30993064;28;20117;-79
2023/10/21 07:13:04;;;;;;;15.63;6.78;;;;;;;25.30;100.00;99430.78;30984247;28;20142;-80
2023/10/21 07:28:07;;;;;;;16.42;6.53;;;;;;;27.32;100.00;99469.97;30983087;28;20073;-78
2023/10/21 07:43:10;;;;;;;15.45;6.25;;;;;;;28.61;92.16;99511.47;30984511;28;20046;-78
2023/10/21 07:58:12;;;;;;;9.00;5.50;;;;;;;29.86;84.55;99524.13;30982824;28;20070;-75
2023/10/21 08:13:15;;;;;;;7.77;4.93;;;;;;;30.28;77.11;99526.34;30979106;28;20122;-74
2023/10/21 08:28:17;;;;;;;11.60;5.67;;;;;;;31.29;70.15;99534.16;30982125;28;20133;-74
2023/10/21 08:43:19;;;;;;;;;;;;;;;31.57;66.95;99546.97;30985138;28;20088;-74
2023/10/21 08:58:28;;;;;;;9.47;4.53;;;;;;;32.38;64.20;99525.34;31001998;28;20028;-76
2023/10/21 09:13:30;;;;;;;9.18;4.72;;;;;;;32.30;62.88;99522.69;30993852;28;20497;-77
2023/10/21 09:28:32;;;;;;;11.73;4.72;;;;;;;32.55;60.44;99547.78;31003017;28;20054;-77
2023/10/21 09:43:38;;;;;;;8.80;4.13;;;;;;;33.79;57.51;99518.38;31008313;28;20576;-77
2023/10/21 09:58:43;;;;;;;7.05;4.90;;;;;;;34.34;54.87;99521.53;31002058;28;20417;-77
2023/10/21 10:13:48;;;;;;;18.38;5.18;;;;;;;34.42;52.83;99530.56;30991606;28;20057;-75
2023/10/21 10:28:50;;;;;;;7.22;4.20;;;;;;;34.26;53.11;99518.13;30988829;28;20062;-75
2023/10/21 10:43:57;;;;;;;12.77;5.20;;;;;;;34.38;51.39;99527.44;30973300;28;20058;-81
2023/10/21 10:58:59;;;;;;;9.38;4.63;;;;;;;34.77;50.80;99525.91;30986753;28;20081;-78
2023/10/21 11:14:04;;;;;;;13.27;4.90;;;;;;;34.95;50.41;99523.63;30992895;28;20046;-79
2023/10/21 11:29:07;;;;;;;9.95;3.90;;;;;;;35.43;49.65;99543.03;30982249;28;20081;-77
2023/10/21 11:44:09;;;;;;;13.40;5.35;;;;;;;36.40;48.15;99548.50;30985954;28;20081;-76
2023/10/21 12:14:57;;;;;;;14.05;4.85;;;;;;;34.08;48.51;99563.38;30991806;28;20074;-77
2023/10/21 12:45:20;;;;;;;19.20;4.78;;;;;;;31.43;54.76;99592.16;31021663;28;20054;-77
2023/10/21 13:00:22;;;;;;;12.20;6.53;;;;;;;30.97;56.65;99602.25;30999597;28;20062;-77
2023/10/21 13:15:24;;;;;;;14.70;5.78;;;;;;;30.66;58.55;99610.91;31008361;28;20081;-75
2023/10/21 13:30:27;;;;;;;13.80;4.95;;;;;;;30.52;60.01;99616.00;30996969;28;20058;-77
2023/10/21 13:45:32;;;;;;;14.93;5.82;;;;;;;30.39;61.39;99632.31;31000473;28;20509;-76
2023/10/21 14:00:35;;;;;;;12.98;5.22;;;;;;;30.18;62.29;99647.34;31000270;28;20169;-76
2023/10/21 14:15:38;;;;;;;12.60;5.45;;;;;;;29.77;64.32;99675.78;30993517;28;20113;-76
2023/10/21 14:30:41;;;;;;;10.50;5.47;;;;;;;29.40;65.42;99689.25;30998492;28;20058;-77
2023/10/21 14:45:47;;;;;;;12.88;6.38;;;;;;;29.26;65.98;99713.06;30995201;28;20049;-77
2023/10/21 15:00:49;;;;;;;19.30;6.53;;;;;;;28.93;67.16;99742.06;30993265;28;20047;-76
2023/10/21 15:16:01;;;;;;;19.13;6.57;;;;;;;28.76;68.66;99768.44;30993934;28;20050;-76
2023/10/21 15:31:04;;;;;;;25.10;12.02;;;;;;;28.59;70.05;99784.91;30986433;28;20315;-77
2023/10/21 15:46:06;;;;;;;20.87;7.47;;;;;;;28.34;71.18;99804.16;30994805;28;20402;-76
2023/10/21 16:01:08;;;;;;;20.10;8.70;;;;;;;28.16;72.06;99814.22;31007134;28;20340;-76
2023/10/21 16:16:11;;;;;;;21.47;8.93;;;;;;;28.04;73.59;99815.81;31003354;28;20609;-77
2023/10/21 16:31:13;;;;;;;23.27;8.83;;;;;;;28.01;73.28;99844.06;31010282;28;20058;-78
2023/10/21 16:46:16;;;;;;;30.70;12.43;;;;;;;27.70;74.55;99845.81;31011163;28;20050;-76
2023/10/21 17:01:18;;;;;;;22.45;12.25;;;;;;;27.54;74.63;99838.59;31012310;28;20137;-76
2023/10/21 17:16:21;;;;;;;61.53;25.90;;;;;;;26.12;88.84;99853.03;31010620;28;20050;-76
2023/10/21 17:31:23;;;;;;;37.03;18.57;;;;;;;25.97;91.29;99857.63;30998994;28;20481;-78
2023/10/21 17:46:25;;;;;;;37.00;17.67;;;;;;;25.71;94.18;99902.75;31006893;28;20063;-77
2023/10/21 18:01:27;;;;;;;51.03;26.20;;;;;;;25.02;100.00;99931.91;31009441;28;20062;-80
2023/10/21 18:16:29;;;;;;;27.05;13.80;;;;;;;24.31;100.00;99962.59;30993444;28;20560;-77
2023/10/21 18:31:31;;;;;;;28.75;12.68;;;;;;;23.71;100.00;99975.56;31005984;28;20066;-76
2023/10/21 18:46:33;;;;;;;25.85;11.93;;;;;;;22.90;100.00;100007.28;31006545;28;20047;-77
2023/10/21 19:01:36;;;;;;;22.13;11.18;;;;;;;22.49;100.00;100021.59;30979437;28;20115;-78
2023/10/21 19:16:45;;;;;;;26.35;11.05;;;;;;;22.14;100.00;100065.56;30978978;28;20141;-80
2023/10/21 19:31:52;;;;;;;29.90;13.43;;;;;;;21.66;100.00;100078.16;30981643;28;20061;-79
2023/10/21 19:46:54;;;;;;;14.82;7.95;;;;;;;21.04;100.00;100087.28;30994314;28;20133;-77
2023/10/21 20:01:58;;;;;;;15.40;7.38;;;;;;;20.77;100.00;100094.09;30976491;28;20581;-78
2023/10/21 20:17:00;;;;;;;25.70;10.17;;;;;;;20.47;100.00;100098.34;30985026;28;20141;-77
2023/10/21 20:32:03;;;;;;;19.23;9.03;;;;;;;20.24;100.00;100111.09;30978146;28;20498;-76
2023/10/21 20:47:05;;;;;;;12.87;6.83;;;;;;;19.98;100.00;100114.56;30998888;28;20490;-78
2023/10/21 21:02:07;;;;;;;11.73;5.83;;;;;;;19.53;100.00;100128.97;30979040;28;20058;-76
2023/10/21 21:17:10;;;;;;;12.57;6.53;;;;;;;19.52;100.00;100155.00;30977427;28;20054;-76
2023/10/21 21:32:12;;;;;;;12.60;6.70;;;;;;;19.22;100.00;100177.03;31001770;28;20487;-77
2023/10/21 21:47:14;;;;;;;25.57;9.63;;;;;;;19.02;100.00;100190.69;30999788;28;20421;-75
2023/10/21 22:02:18;;;;;;;9.17;5.80;;;;;;;18.90;100.00;100194.47;30999658;28;20517;-74
2023/10/21 22:17:21;;;;;;;10.30;4.73;;;;;;;18.84;100.00;100207.38;30991206;28;20490;-76
2023/10/21 22:32:23;;;;;;;7.93;4.97;;;;;;;18.57;100.00;100200.84;31003319;28;20070;-76
2023/10/21 22:47:26;;;;;;;11.77;4.07;;;;;;;18.39;100.00;100212.00;30989811;28;20510;-77
2023/10/21 23:02:28;;;;;;;8.60;4.30;;;;;;;18.24;100.00;100211.16;30997630;28;20054;-77
2023/10/21 23:17:30;;;;;;;9.93;4.73;;;;;;;18.20;100.00;100216.06;30998128;28;20055;-77
2023/10/21 23:32:32;;;;;;;12.30;4.33;;;;;;;18.14;100.00;100217.94;30982266;28;20379;-77
2023/10/21 23:47:34;;;;;;;7.80;4.47;;;;;;;17.73;100.00;100215.56;30988779;28;20454;-76
